X  SluitMETAR luchtvaart weer gegevens      EHGG Eelde Airport

Temperatuur

12°C Temperatuur

10°C Dauwpunt

88% Vochtigheid



Wind

19 KM/U

12 MPH

 5 M/S

10 KTS



210°
Zuid Zuid
West
Huidig weer

Veel verspreide wolken Veel verspreide wolken
Luchtdruk 999.92 (hPa) - 29.53 (in)
Zicht 6.2 (mi) - 10 (km)
Vliegveld
Vliegveld code EHGG

Locatie Eelde Airport 50 (km)

Metar:
EHGG 251155Z AUTO 21010KT 9999 SCT015 12/10 Q1000 NOSIG

Tijd: 25-10-2020 12:55